createdAt,value
2023-05-22T00:04:30.141Z,1.15
2023-05-22T00:09:22.066Z,1.10
2023-05-22T00:14:13.885Z,1.52
2023-05-22T00:19:07.174Z,1.23
2023-05-22T00:23:58.885Z,1.02
2023-05-22T00:28:50.644Z,0.98
2023-05-22T00:33:42.396Z,1.02
2023-05-22T00:38:36.596Z,0.77
2023-05-22T00:43:28.644Z,0.90
2023-05-22T00:48:24.138Z,1.00
2023-05-22T00:53:16.157Z,0.93
2023-05-22T00:58:10.624Z,0.75
2023-05-22T01:03:08.169Z,0.70
2023-05-22T01:08:00.097Z,0.60
2023-05-22T01:13:00.954Z,0.70
2023-05-22T01:18:00.228Z,1.00
2023-05-22T01:23:19.783Z,0.70
2023-05-22T01:28:33.307Z,0.73
2023-05-22T01:33:26.549Z,0.70
2023-05-22T01:38:18.959Z,0.80
2023-05-22T01:43:10.960Z,0.65
2023-05-22T01:48:02.696Z,0.60
2023-05-22T01:53:07.975Z,1.20
2023-05-22T01:58:08.483Z,0.80
2023-05-22T02:03:07.863Z,0.65
2023-05-22T02:08:01.409Z,0.85
2023-05-22T02:12:53.971Z,0.80
2023-05-22T02:17:46.384Z,1.10
2023-05-22T02:22:37.941Z,1.20
2023-05-22T02:27:29.558Z,3.08
2023-05-22T02:32:21.129Z,1.90
2023-05-22T02:37:13.253Z,2.63
2023-05-22T02:42:05.345Z,3.80
2023-05-22T02:46:57.263Z,4.40
2023-05-22T02:51:49.014Z,2.65
2023-05-22T02:56:40.924Z,4.88
2023-05-22T03:01:32.709Z,4.22
2023-05-22T03:06:25.472Z,4.60
2023-05-22T03:11:17.172Z,5.30
2023-05-22T03:16:08.811Z,4.43
2023-05-22T03:21:00.703Z,4.32
2023-05-22T03:25:52.430Z,3.72
2023-05-22T03:30:44.127Z,3.58
2023-05-22T03:35:36.355Z,3.88
2023-05-22T03:40:28.001Z,4.75
2023-05-22T03:45:19.624Z,4.70
2023-05-22T03:50:11.586Z,4.22
2023-05-22T03:55:03.468Z,4.72
2023-05-22T03:59:55.317Z,4.82
2023-05-22T04:04:48.553Z,4.68
2023-05-22T04:09:41.540Z,3.95
2023-05-22T04:14:33.271Z,4.25
2023-05-22T04:19:25.011Z,4.05
2023-05-22T04:24:16.711Z,4.22
2023-05-22T04:29:10.572Z,3.83
2023-05-22T04:34:02.850Z,3.92
2023-05-22T04:38:54.959Z,3.67
2023-05-22T04:43:48.396Z,5.40
2023-05-22T04:48:40.340Z,4.78
2023-05-22T04:53:33.517Z,4.07
2023-05-22T04:58:27.563Z,4.22
2023-05-22T05:03:19.965Z,3.13
2023-05-22T05:08:12.142Z,3.55
2023-05-22T05:13:03.726Z,2.63
2023-05-22T05:17:56.190Z,2.67
2023-05-22T05:22:48.148Z,3.20
2023-05-22T05:27:40.167Z,2.63
2023-05-22T05:32:31.751Z,2.03
2023-05-22T05:37:23.497Z,2.63
2023-05-22T05:42:15.297Z,2.60
2023-05-22T05:47:07.151Z,3.75
2023-05-22T05:51:58.828Z,3.05
2023-05-22T05:56:50.675Z,3.85
2023-05-22T06:01:45.886Z,4.25
2023-05-22T06:06:39.513Z,4.28
2023-05-22T06:11:31.430Z,5.18
2023-05-22T06:16:23.205Z,4.57
2023-05-22T06:21:14.838Z,4.60
2023-05-22T06:26:07.450Z,4.35
2023-05-22T06:30:59.160Z,3.55
2023-05-22T06:35:50.774Z,4.05
2023-05-22T06:40:42.361Z,4.90
2023-05-22T06:45:34.054Z,5.70
2023-05-22T06:50:25.822Z,5.85
2023-05-22T06:55:17.466Z,4.32
2023-05-22T07:00:11.993Z,4.93
2023-05-22T07:05:04.134Z,5.15
2023-05-22T07:09:55.848Z,5.53
2023-05-22T07:14:47.435Z,5.75
2023-05-22T07:19:39.054Z,6.65
2023-05-22T07:24:30.845Z,10.95
2023-05-22T07:29:23.339Z,13.70
2023-05-22T07:34:15.620Z,12.82
2023-05-22T07:39:07.211Z,14.50
2023-05-22T07:43:58.910Z,17.75
2023-05-22T07:48:50.502Z,16.42
2023-05-22T07:53:42.148Z,17.40
2023-05-22T07:58:34.094Z,15.77
2023-05-22T08:03:25.935Z,18.02
2023-05-22T08:08:17.856Z,19.17
2023-05-22T08:13:10.197Z,19.52
2023-05-22T08:18:01.906Z,21.65
2023-05-22T08:22:54.499Z,21.88
2023-05-22T08:27:46.283Z,21.00
2023-05-22T08:32:38.037Z,16.00
2023-05-22T08:37:29.745Z,15.18
2023-05-22T08:42:22.363Z,14.35
2023-05-22T08:47:15.265Z,14.13
2023-05-22T08:52:14.615Z,14.63
2023-05-22T08:57:06.459Z,14.40
2023-05-22T09:01:58.621Z,14.15
2023-05-22T09:06:50.814Z,13.68
2023-05-22T09:11:42.501Z,12.65
2023-05-22T09:16:43.342Z,9.00
2023-05-22T09:21:37.145Z,11.60
2023-05-22T09:26:29.727Z,10.75
2023-05-22T09:31:21.519Z,8.32
2023-05-22T09:36:13.584Z,7.05
2023-05-22T09:41:05.887Z,5.65
2023-05-22T09:46:01.014Z,5.38
2023-05-22T09:51:00.011Z,5.53
2023-05-22T09:55:53.192Z,5.45
2023-05-22T10:00:46.129Z,4.97
2023-05-22T10:05:39.170Z,6.43
2023-05-22T10:10:30.872Z,5.75
2023-05-22T10:15:23.162Z,5.78
2023-05-22T10:20:16.521Z,4.95
2023-05-22T10:25:10.736Z,4.10
2023-05-22T10:30:09.110Z,3.72
2023-05-22T10:35:08.951Z,3.97
2023-05-22T10:40:04.997Z,3.85
2023-05-22T10:44:56.713Z,3.42
2023-05-22T10:49:50.902Z,3.67
2023-05-22T10:54:43.790Z,3.60
2023-05-22T10:59:35.561Z,4.32
2023-05-22T11:04:27.205Z,2.63
2023-05-22T11:09:32.045Z,3.67
2023-05-22T11:14:25.928Z,3.08
2023-05-22T11:19:23.858Z,2.83
2023-05-22T11:24:17.951Z,2.10
2023-05-22T11:29:10.219Z,2.47
2023-05-22T11:34:02.283Z,2.70
2023-05-22T11:38:58.865Z,2.88
2023-05-22T11:43:51.025Z,2.30
2023-05-22T11:48:43.033Z,2.85
2023-05-22T11:53:35.880Z,3.67
2023-05-22T11:58:28.688Z,3.80
2023-05-22T12:03:20.487Z,2.65
2023-05-22T12:08:12.343Z,3.15
2023-05-22T12:13:03.963Z,2.30
2023-05-22T12:17:56.554Z,2.53
2023-05-22T12:22:49.238Z,1.95
2023-05-22T12:27:40.928Z,2.10
2023-05-22T12:32:32.654Z,2.42
2023-05-22T12:37:26.030Z,2.70
2023-05-22T12:42:17.674Z,1.77
2023-05-22T12:47:09.248Z,2.05
2023-05-22T12:52:00.807Z,1.73
2023-05-22T12:56:52.394Z,1.73
2023-05-22T13:01:44.336Z,1.42
2023-05-22T13:06:35.998Z,1.73
2023-05-22T13:11:27.654Z,1.45
2023-05-22T13:16:19.585Z,1.50
2023-05-22T13:21:12.654Z,1.17
2023-05-22T13:26:04.452Z,1.58
2023-05-22T13:30:56.546Z,1.05
2023-05-22T13:35:48.566Z,1.20
2023-05-22T13:40:40.163Z,1.02
2023-05-22T13:45:31.807Z,0.80
2023-05-22T13:50:23.470Z,0.85
2023-05-22T13:55:15.231Z,0.70
2023-05-22T14:00:08.910Z,1.25
2023-05-22T14:05:00.689Z,0.73
2023-05-22T14:09:52.366Z,0.73
2023-05-22T14:14:43.932Z,0.90
2023-05-22T14:19:36.218Z,0.70
2023-05-22T14:24:27.962Z,0.90
2023-05-22T14:29:19.687Z,0.70
2023-05-22T14:34:11.366Z,1.00
2023-05-22T14:39:03.104Z,0.70
2023-05-22T14:43:54.735Z,0.90
2023-05-22T14:48:46.361Z,1.02
2023-05-22T14:53:38.006Z,1.00
2023-05-22T14:58:29.609Z,1.10
2023-05-22T15:03:21.607Z,0.60
2023-05-22T15:08:13.335Z,0.95
2023-05-22T15:13:05.112Z,0.88
2023-05-22T15:17:56.820Z,0.68
2023-05-22T15:22:48.438Z,0.70
2023-05-22T15:27:40.576Z,0.70
2023-05-22T15:32:33.116Z,1.00
2023-05-22T15:37:24.774Z,0.70
2023-05-22T15:42:16.441Z,0.50
2023-05-22T15:47:08.055Z,1.05
2023-05-22T15:51:59.781Z,0.70
2023-05-22T15:56:51.481Z,0.52
2023-05-22T16:01:43.082Z,0.82
2023-05-22T16:06:34.770Z,0.55
2023-05-22T16:11:26.469Z,0.70
2023-05-22T16:16:18.414Z,0.60
2023-05-22T16:21:10.195Z,0.60
2023-05-22T16:26:01.815Z,0.70
2023-05-22T16:30:53.517Z,0.70
2023-05-22T16:35:47.955Z,0.50
2023-05-22T16:40:39.855Z,0.60
2023-05-22T16:45:31.584Z,0.70
2023-05-22T16:50:23.256Z,0.88
2023-05-22T16:55:14.909Z,0.70
2023-05-22T17:00:07.139Z,0.52
2023-05-22T17:04:58.893Z,0.90
2023-05-22T17:09:50.660Z,0.70
2023-05-22T17:14:42.302Z,0.70
2023-05-22T17:19:33.963Z,0.70
2023-05-22T17:24:27.738Z,0.85
2023-05-22T17:29:19.349Z,0.60
2023-05-22T17:34:10.977Z,0.60
2023-05-22T17:39:02.820Z,0.50
2023-05-22T17:43:55.960Z,0.60
2023-05-22T17:48:47.639Z,0.50
2023-05-22T17:53:39.444Z,0.90
2023-05-22T17:58:31.211Z,0.70
2023-05-22T18:03:23.008Z,0.60
2023-05-22T18:08:14.778Z,0.70
2023-05-22T18:13:06.746Z,0.57
2023-05-22T18:17:58.617Z,1.10
2023-05-22T18:22:50.566Z,0.70
2023-05-22T18:27:42.313Z,0.70
2023-05-22T18:32:34.140Z,0.75
2023-05-22T18:37:26.996Z,0.60
2023-05-22T18:42:18.945Z,0.63
2023-05-22T18:47:10.730Z,0.80
2023-05-22T18:52:02.440Z,0.80
2023-05-22T18:56:54.096Z,0.63
2023-05-22T19:01:45.771Z,0.70
2023-05-22T19:06:42.134Z,1.00
2023-05-22T19:11:33.766Z,0.60
2023-05-22T19:16:25.554Z,0.75
2023-05-22T19:21:17.151Z,0.73
2023-05-22T19:26:08.759Z,0.77
2023-05-22T19:31:03.101Z,0.98
2023-05-22T19:35:54.845Z,0.82
2023-05-22T19:40:46.512Z,0.60
2023-05-22T19:45:38.418Z,0.85
2023-05-22T19:50:30.038Z,0.90
2023-05-22T19:55:22.016Z,0.90
2023-05-22T20:00:14.011Z,0.50
2023-05-22T20:05:09.451Z,0.77
2023-05-22T20:10:01.166Z,0.98
2023-05-22T20:14:52.960Z,0.73
2023-05-22T20:19:45.082Z,0.82
2023-05-22T20:24:37.328Z,0.73
2023-05-22T20:29:29.001Z,0.80
2023-05-22T20:34:20.617Z,0.82
2023-05-22T20:39:12.229Z,1.13
2023-05-22T20:44:04.025Z,0.57
2023-05-22T20:48:56.640Z,0.93
2023-05-22T20:53:48.568Z,0.63
2023-05-22T20:58:40.290Z,1.00
2023-05-22T21:03:32.602Z,0.60
2023-05-22T21:08:24.281Z,0.95
2023-05-22T21:13:16.049Z,1.08
2023-05-22T21:18:07.838Z,1.00
2023-05-22T21:22:59.543Z,1.10
2023-05-22T21:27:51.213Z,0.85
2023-05-22T21:32:43.002Z,1.38
2023-05-22T21:37:34.781Z,0.80
2023-05-22T21:42:26.431Z,1.00
2023-05-22T21:47:18.037Z,0.90
2023-05-22T21:52:09.622Z,1.00
2023-05-22T21:57:01.329Z,0.80
2023-05-22T22:01:53.183Z,1.00
2023-05-22T22:06:44.863Z,1.00
2023-05-22T22:11:36.645Z,1.10
2023-05-22T22:16:28.569Z,1.30
2023-05-22T22:21:20.659Z,1.00
2023-05-22T22:26:12.767Z,0.98
2023-05-22T22:31:04.531Z,0.57
2023-05-22T22:35:56.497Z,0.85
2023-05-22T22:40:48.112Z,1.50
2023-05-22T22:45:40.215Z,0.80
2023-05-22T22:50:32.322Z,0.77
2023-05-22T22:55:24.017Z,0.90
2023-05-22T23:00:20.142Z,0.90
2023-05-22T23:05:12.148Z,0.90
2023-05-22T23:10:04.310Z,1.02
2023-05-22T23:14:55.919Z,1.05
2023-05-22T23:19:47.520Z,1.00
2023-05-22T23:24:39.281Z,0.93
2023-05-22T23:29:31.104Z,1.15
2023-05-22T23:34:22.733Z,0.90
2023-05-22T23:39:14.376Z,1.20
2023-05-22T23:44:06.296Z,0.95
2023-05-22T23:48:57.955Z,0.60
2023-05-22T23:53:49.613Z,0.70
2023-05-22T23:58:41.281Z,0.98
